Time;durP1;ratioP1;P1;durP2;ratioP2;P2;SDS_P1;SDS_P2;PMS_P1;PMS_P2;Temp;Humidity;BMP_temperature;BMP_pressure;BME280_temperature;BME280_humidity;BME280_pressure;Samples;Min_cycle;Max_cycle;Signal;HPM_P1;HPM_P2
2021/07/29 00:01:15;;;;;;;11.50;5.15;;;;;;;12.55;94.97;98818.56;5061979;28;20020;-66
2021/07/29 00:03:41;;;;;;;19.08;5.32;;;;;;;12.52;95.05;98810.69;5063238;28;20243;-66
2021/07/29 00:06:07;;;;;;;19.42;6.20;;;;;;;12.53;95.32;98812.44;5048686;28;20021;-66
2021/07/29 00:08:32;;;;;;;9.77;4.75;;;;;;;12.51;95.16;98808.97;5043942;28;20028;-66
2021/07/29 00:10:57;;;;;;;11.55;5.38;;;;;;;12.51;95.40;98808.97;5044963;28;20032;-66
2021/07/29 00:13:23;;;;;;;12.82;5.68;;;;;;;12.51;95.32;98803.69;5043860;28;20021;-66
2021/07/29 00:15:48;;;;;;;8.70;5.03;;;;;;;12.46;95.44;98795.00;5045507;28;20312;-66
2021/07/29 00:20:41;;;;;;;12.45;6.88;;;;;;;12.47;95.55;98799.38;5067324;28;20005;-66
2021/07/29 00:23:07;;;;;;;9.40;5.38;;;;;;;12.48;95.20;98850.41;5056637;28;20066;-66
2021/07/29 00:25:33;;;;;;;9.93;5.70;;;;;;;12.48;95.21;98805.53;5047863;28;20088;-66
2021/07/29 00:27:58;;;;;;;13.88;5.68;;;;;;;12.55;94.98;98800.06;5048920;28;20267;-66
2021/07/29 00:30:25;;;;;;;12.95;5.10;;;;;;;12.55;94.46;98800.06;5047630;28;20013;-66
2021/07/29 00:32:52;;;;;;;16.85;5.60;;;;;;;12.24;94.65;98783.22;5047744;28;20052;-66
2021/07/29 00:35:18;;;;;;;15.07;5.18;;;;;;;12.21;95.14;98783.28;5059851;28;20024;-66
2021/07/29 00:37:49;;;;;;;15.40;5.63;;;;;;;12.25;95.78;98784.94;5066971;28;20021;-66
2021/07/29 00:40:18;;;;;;;13.07;5.00;;;;;;;12.36;95.49;98834.84;5049339;28;20085;-66
2021/07/29 00:42:44;;;;;;;10.88;4.55;;;;;;;12.30;95.40;98812.13;5053302;28;20029;-66
2021/07/29 00:45:10;;;;;;;16.65;5.50;;;;;;;12.31;95.49;98813.00;5061626;28;20017;-66
2021/07/29 00:47:40;;;;;;;8.60;5.00;;;;;;;12.33;95.24;98803.25;5065146;28;20066;-66
2021/07/29 00:50:06;;;;;;;15.90;5.50;;;;;;;12.42;95.75;98803.91;5066697;28;20017;-66
2021/07/29 00:52:32;;;;;;;15.18;5.55;;;;;;;12.56;96.06;98812.34;5059400;28;20021;-66
2021/07/29 00:54:58;;;;;;;11.20;5.28;;;;;;;12.69;95.13;98808.50;5048422;28;20024;-66
2021/07/29 00:57:24;;;;;;;9.57;5.07;;;;;;;12.54;94.20;98798.34;5047187;28;20036;-66
2021/07/29 00:59:49;;;;;;;12.43;5.13;;;;;;;12.60;94.71;98782.31;5061230;28;20104;-66
2021/07/29 01:02:15;;;;;;;15.40;5.22;;;;;;;12.60;94.25;98790.25;5065468;28;20205;-66
2021/07/29 01:04:41;;;;;;;8.18;4.85;;;;;;;12.66;94.03;98787.44;5050933;28;20040;-66
2021/07/29 01:07:06;;;;;;;13.85;5.10;;;;;;;12.63;94.04;98779.59;5059314;28;20021;-66
2021/07/29 01:09:32;;;;;;;17.35;5.28;;;;;;;12.55;94.46;98775.44;5045825;28;20144;-66
2021/07/29 01:11:57;;;;;;;17.52;5.50;;;;;;;12.64;95.16;98776.09;5060701;28;20071;-66
2021/07/29 01:14:23;;;;;;;10.02;5.32;;;;;;;12.77;95.42;98785.41;5066037;28;20017;-66
2021/07/29 01:16:48;;;;;;;11.85;4.85;;;;;;;12.74;94.65;98774.94;5062971;28;20013;-66
2021/07/29 01:19:14;;;;;;;11.55;4.97;;;;;;;12.65;93.76;98769.88;5046827;28;20017;-66
2021/07/29 01:21:40;;;;;;;9.93;4.93;;;;;;;12.61;94.56;98777.91;5046795;28;20368;-66
2021/07/29 01:24:06;;;;;;;13.18;5.80;;;;;;;12.64;95.12;98776.09;5059023;28;20017;-66
2021/07/29 01:26:32;;;;;;;19.40;5.53;;;;;;;12.70;95.14;98775.94;5066077;28;20028;-66
2021/07/29 01:29:00;;;;;;;12.88;5.30;;;;;;;12.80;94.83;98781.81;5062816;28;20089;-66
2021/07/29 01:31:28;;;;;;;20.20;5.53;;;;;;;12.82;94.96;98774.75;5046816;28;20044;-67
2021/07/29 01:33:57;;;;;;;15.52;5.70;;;;;;;12.87;95.26;98781.63;5046576;28;20092;-67
2021/07/29 01:36:23;;;;;;;11.73;5.80;;;;;;;12.95;95.63;98779.63;5057272;28;20019;-67
2021/07/29 01:38:49;;;;;;;15.70;6.45;;;;;;;13.12;95.41;98778.34;5046453;28;20017;-67
2021/07/29 01:41:14;;;;;;;14.20;6.47;;;;;;;13.22;95.47;98782.50;5052186;28;20013;-67
2021/07/29 01:43:40;;;;;;;10.27;6.00;;;;;;;13.41;95.21;98799.59;5065572;28;20017;-67
2021/07/29 01:46:05;;;;;;;12.10;6.55;;;;;;;13.59;95.25;98793.75;5065760;28;20211;-66
2021/07/29 01:48:32;;;;;;;11.43;6.07;;;;;;;13.76;94.60;98784.44;5051689;28;20032;-66
2021/07/29 01:50:58;;;;;;;11.88;5.65;;;;;;;13.84;94.26;98789.50;5046405;28;20328;-66
2021/07/29 01:53:23;;;;;;;18.98;6.47;;;;;;;13.93;94.45;98799.81;5053233;28;20017;-66
2021/07/29 01:55:49;;;;;;;13.65;5.45;;;;;;;14.08;93.90;98792.25;5065328;28;20055;-66
2021/07/29 01:58:15;;;;;;;21.50;6.55;;;;;;;14.15;93.19;98790.31;5065499;28;20039;-66
2021/07/29 02:00:43;;;;;;;12.02;5.60;;;;;;;14.15;92.66;98785.00;5048938;28;20040;-66
2021/07/29 02:03:09;;;;;;;7.70;4.95;;;;;;;14.12;92.44;98790.41;5055774;28;20031;-66
2021/07/29 02:05:34;;;;;;;16.73;5.28;;;;;;;14.16;92.51;98792.03;5064026;28;20044;-66
2021/07/29 02:08:00;;;;;;;10.32;5.35;;;;;;;14.14;92.15;98784.13;5065323;28;20092;-66
2021/07/29 02:10:27;;;;;;;10.32;5.47;;;;;;;14.16;91.93;98786.72;5063223;28;20049;-66
2021/07/29 02:12:53;;;;;;;10.93;5.15;;;;;;;14.16;92.28;98786.72;5046014;28;20025;-66
2021/07/29 02:15:18;;;;;;;12.90;5.32;;;;;;;14.18;91.77;98784.91;5045813;28;20032;-66
2021/07/29 02:17:44;;;;;;;17.92;5.75;;;;;;;14.13;92.03;98781.53;5057077;28;20016;-66
2021/07/29 02:20:10;;;;;;;14.98;5.60;;;;;;;14.10;91.83;98781.63;5063951;28;20021;-66
2021/07/29 02:22:35;;;;;;;11.45;4.97;;;;;;;14.08;92.11;98786.13;5063729;28;20247;-66
2021/07/29 02:25:01;;;;;;;10.65;4.80;;;;;;;14.10;92.60;98787.78;5045609;28;20084;-66
2021/07/29 02:27:26;;;;;;;12.45;5.20;;;;;;;14.14;92.75;98796.53;5045848;28;20017;-66
2021/07/29 02:29:53;;;;;;;11.63;5.07;;;;;;;14.14;92.47;98792.06;5054717;28;20016;-66
2021/07/29 02:32:19;;;;;;;17.20;5.28;;;;;;;14.19;92.54;98786.63;5064823;28;20044;-66
2021/07/29 02:34:44;;;;;;;10.73;5.38;;;;;;;14.18;92.34;98787.56;5064789;28;20024;-66
2021/07/29 02:37:10;;;;;;;12.38;5.35;;;;;;;14.24;92.93;98784.75;5056165;28;20025;-66
2021/07/29 02:39:36;;;;;;;10.80;4.78;;;;;;;14.27;92.98;98795.25;5063641;28;20051;-66
2021/07/29 02:42:02;;;;;;;9.82;4.95;;;;;;;14.34;93.10;98791.50;5056917;28;20083;-66
2021/07/29 02:44:28;;;;;;;8.00;4.93;;;;;;;14.44;92.73;98793.81;5045429;28;20019;-66
2021/07/29 02:46:53;;;;;;;11.43;4.60;;;;;;;14.49;92.51;98793.66;5045172;28;20017;-66
2021/07/29 02:49:18;;;;;;;10.77;5.00;;;;;;;14.53;92.59;98795.28;5046197;28;20328;-66
2021/07/29 02:51:44;;;;;;;12.93;5.80;;;;;;;14.51;92.66;98784.75;5045090;28;20022;-66
2021/07/29 02:54:09;;;;;;;9.43;5.07;;;;;;;14.50;92.36;98787.44;5052798;28;20203;-66
2021/07/29 02:56:35;;;;;;;14.82;5.47;;;;;;;14.56;92.21;98792.53;5064347;28;20024;-66
2021/07/29 02:59:00;;;;;;;10.57;4.97;;;;;;;14.57;92.14;98791.63;5050229;28;20037;-66
2021/07/29 03:01:26;;;;;;;11.18;5.10;;;;;;;14.60;92.27;98788.88;5061677;28;20021;-66
2021/07/29 03:03:53;;;;;;;14.77;5.88;;;;;;;14.60;92.28;98794.16;5064145;28;20013;-66
2021/07/29 03:06:19;;;;;;;7.95;3.97;;;;;;;14.60;92.30;98788.88;5057629;28;20037;-66
2021/07/29 03:08:44;;;;;;;12.23;5.90;;;;;;;14.58;92.34;98790.69;5062422;28;20303;-66
2021/07/29 03:11:10;;;;;;;10.75;5.32;;;;;;;14.56;92.61;98792.53;5064083;28;20207;-66
2021/07/29 03:13:36;;;;;;;9.50;4.53;;;;;;;14.63;92.12;98794.06;5045250;28;20036;-66
2021/07/29 03:16:01;;;;;;;10.93;5.13;;;;;;;14.65;92.54;98784.28;5044749;28;20318;-66
2021/07/29 03:18:27;;;;;;;13.40;5.00;;;;;;;14.71;92.40;98802.59;5052745;28;20027;-66
2021/07/29 03:20:52;;;;;;;12.50;5.35;;;;;;;14.74;92.51;98807.81;5062647;28;20059;-66
2021/07/29 03:23:18;;;;;;;11.15;5.07;;;;;;;14.80;92.03;98807.59;5063926;28;20020;-66
2021/07/29 03:25:48;;;;;;;11.70;4.40;;;;;;;14.88;92.20;98810.88;5057344;28;20043;-66
2021/07/29 03:28:13;;;;;;;10.43;4.88;;;;;;;14.88;92.27;98801.13;5063880;28;20021;-66
2021/07/29 03:30:38;;;;;;;7.93;4.32;;;;;;;14.93;91.89;98809.81;5051491;28;20017;-66
2021/07/29 03:33:05;;;;;;;12.65;5.15;;;;;;;14.94;91.89;98814.16;5044463;28;20033;-66
2021/07/29 03:35:31;;;;;;;13.90;5.22;;;;;;;14.98;92.15;98817.59;5044609;28;20081;-66
2021/07/29 03:37:57;;;;;;;9.15;4.57;;;;;;;15.02;91.93;98835.13;5062538;28;20066;-66
2021/07/29 03:40:22;;;;;;;8.30;4.60;;;;;;;15.05;92.17;98822.66;5057059;28;20017;-66
2021/07/29 03:42:48;;;;;;;11.18;4.72;;;;;;;15.06;92.24;98816.41;5044261;28;20029;-66
2021/07/29 03:45:13;;;;;;;9.85;4.68;;;;;;;15.15;91.36;98815.22;5046406;28;20029;-66
2021/07/29 03:47:39;;;;;;;11.48;4.63;;;;;;;15.18;91.50;98825.72;5044136;28;20063;-66
2021/07/29 03:50:05;;;;;;;12.70;4.95;;;;;;;15.26;91.33;98828.13;5044001;28;20252;-66
2021/07/29 03:52:31;;;;;;;8.85;5.15;;;;;;;15.30;90.65;98830.63;5054845;28;20052;-66
2021/07/29 03:54:56;;;;;;;11.30;4.35;;;;;;;15.29;91.00;98831.53;5062286;28;20037;-66
2021/07/29 03:57:23;;;;;;;8.77;4.45;;;;;;;15.28;91.81;98858.97;5062534;28;20025;-66
2021/07/29 03:59:49;;;;;;;12.02;5.10;;;;;;;15.29;91.81;98945.56;5043760;28;20055;-66
2021/07/29 04:02:16;;;;;;;12.02;4.82;;;;;;;15.29;91.71;98907.56;5051682;28;20053;-66
2021/07/29 04:04:41;;;;;;;10.52;5.38;;;;;;;15.29;91.79;98894.31;5056669;28;20029;-66
2021/07/29 04:07:07;;;;;;;14.88;5.63;;;;;;;15.35;91.10;98892.34;5063294;28;20093;-66
2021/07/29 04:09:34;;;;;;;12.43;5.85;;;;;;;15.33;91.34;98888.84;5060577;28;20059;-66
2021/07/29 04:12:00;;;;;;;14.13;5.45;;;;;;;15.32;91.40;98892.44;5043907;28;20028;-66
2021/07/29 04:14:26;;;;;;;15.23;5.13;;;;;;;15.32;91.37;98887.13;5045106;28;20309;-66
2021/07/29 04:16:53;;;;;;;9.80;4.55;;;;;;;15.34;91.10;98885.28;5058685;28;20017;-66
2021/07/29 04:19:19;;;;;;;15.88;5.40;;;;;;;15.33;91.68;98894.16;5060202;28;20037;-66
2021/07/29 04:21:44;;;;;;;16.10;5.32;;;;;;;15.33;91.67;98894.16;5058825;28;20323;-66
2021/07/29 04:24:10;;;;;;;13.00;4.70;;;;;;;15.44;90.43;98894.66;5058857;28;20209;-66
2021/07/29 04:26:35;;;;;;;10.15;5.03;;;;;;;15.38;90.94;98892.25;5060185;28;20017;-66
2021/07/29 04:29:00;;;;;;;9.55;4.70;;;;;;;15.40;91.02;98893.06;5058615;28;20108;-66
2021/07/29 04:31:26;;;;;;;14.20;5.13;;;;;;;15.46;90.47;98900.81;5058700;28;20229;-66
2021/07/29 04:33:52;;;;;;;9.00;5.00;;;;;;;15.47;90.77;98896.38;5060103;28;20056;-66
2021/07/29 04:36:18;;;;;;;11.40;5.20;;;;;;;15.50;90.10;98901.56;5058730;28;20370;-66
2021/07/29 04:38:44;;;;;;;9.07;5.05;;;;;;;15.57;90.07;98898.66;5059784;28;20021;-66
2021/07/29 04:41:09;;;;;;;12.18;5.13;;;;;;;15.62;89.98;98895.81;5046694;28;20017;-66
2021/07/29 04:43:35;;;;;;;18.73;5.75;;;;;;;15.70;90.06;98917.66;5049234;28;20308;-66
2021/07/29 04:46:02;;;;;;;10.20;4.85;;;;;;;15.73;89.81;98907.81;5043553;28;20017;-66
2021/07/29 04:48:27;;;;;;;22.67;5.32;;;;;;;15.78;89.42;98918.25;5043786;28;20205;-66
2021/07/29 04:50:53;;;;;;;13.25;4.25;;;;;;;15.83;90.27;98916.31;5043405;28;20017;-66
2021/07/29 04:53:18;;;;;;;10.93;4.95;;;;;;;15.87;89.77;98913.47;5043465;28;20025;-66
2021/07/29 04:55:43;;;;;;;12.23;4.70;;;;;;;16.14;88.02;98923.09;5043451;28;20025;-66
2021/07/29 04:58:09;;;;;;;8.25;4.13;;;;;;;16.30;87.43;98918.09;5043430;28;20044;-66
2021/07/29 05:00:34;;;;;;;8.15;4.00;;;;;;;16.23;87.41;98913.94;5043324;28;20113;-66
2021/07/29 05:03:00;;;;;;;5.65;3.55;;;;;;;16.22;88.01;98910.41;5044445;28;20029;-66
2021/07/29 05:05:25;;;;;;;9.05;4.05;;;;;;;16.35;87.13;98911.66;5045962;28;20059;-66
2021/07/29 05:07:52;;;;;;;12.48;4.13;;;;;;;16.36;87.32;98902.75;5047067;28;20017;-66
2021/07/29 05:10:18;;;;;;;9.05;3.78;;;;;;;16.35;86.27;98902.81;5047177;28;20022;-66
2021/07/29 05:12:43;;;;;;;7.80;3.15;;;;;;;16.64;85.67;98905.25;5046974;28;20021;-66
2021/07/29 05:15:09;;;;;;;9.73;3.90;;;;;;;16.68;85.77;98899.75;5046930;28;20075;-66
2021/07/29 05:17:34;;;;;;;11.18;4.05;;;;;;;17.11;83.09;98910.41;5046799;28;20027;-66
2021/07/29 05:20:00;;;;;;;8.50;3.20;;;;;;;17.16;83.25;98919.06;5046814;28;20055;-66
2021/07/29 05:22:25;;;;;;;5.28;3.10;;;;;;;17.17;83.20;98915.47;5046768;28;20079;-67
2021/07/29 05:24:50;;;;;;;5.78;3.47;;;;;;;17.27;82.38;98920.44;5046724;28;20022;-67
2021/07/29 05:27:16;;;;;;;4.88;2.67;;;;;;;17.49;82.44;98922.13;5046720;28;20375;-67
2021/07/29 05:29:41;;;;;;;8.15;2.83;;;;;;;17.79;82.48;98936.81;5046817;28;20018;-67
2021/07/29 05:32:07;;;;;;;3.85;2.65;;;;;;;17.91;81.54;98935.41;5046622;28;20021;-67
2021/07/29 05:34:33;;;;;;;3.97;2.67;;;;;;;17.86;80.61;98932.94;5046571;28;20028;-67
2021/07/29 05:36:59;;;;;;;6.32;3.03;;;;;;;18.74;79.06;98957.34;5046512;28;20021;-67
2021/07/29 05:39:24;;;;;;;6.72;3.35;;;;;;;19.64;76.43;98968.03;5046721;28;20031;-67
2021/07/29 05:41:50;;;;;;;6.65;3.13;;;;;;;19.38;77.65;98944.44;5046415;28;20317;-67
2021/07/29 05:44:15;;;;;;;14.40;3.97;;;;;;;18.93;78.49;98922.66;5046367;28;20017;-67
2021/07/29 05:46:41;;;;;;;8.25;3.33;;;;;;;18.57;77.56;98917.25;5046298;28;20021;-67
2021/07/29 05:49:06;;;;;;;12.32;3.83;;;;;;;18.45;80.30;98914.31;5046285;28;20017;-67
2021/07/29 05:51:31;;;;;;;8.00;3.85;;;;;;;18.54;78.65;98921.88;5046213;28;20377;-67
2021/07/29 05:53:57;;;;;;;9.85;3.85;;;;;;;18.54;80.40;98921.88;5046196;28;20029;-67
2021/07/29 05:56:22;;;;;;;7.53;3.78;;;;;;;18.76;79.25;98928.78;5046178;28;20017;-67
2021/07/29 05:58:48;;;;;;;6.53;3.78;;;;;;;18.71;80.27;98930.81;5045914;28;20049;-67
2021/07/29 06:01:13;;;;;;;8.48;3.95;;;;;;;20.32;74.30;98985.88;5046109;28;20094;-67
2021/07/29 06:03:39;;;;;;;11.50;4.55;;;;;;;21.44;71.78;98993.91;5045982;28;20075;-67
2021/07/29 06:06:04;;;;;;;7.97;2.72;;;;;;;21.45;70.37;98974.22;5045980;28;20208;-67
2021/07/29 06:08:29;;;;;;;7.43;3.35;;;;;;;20.45;73.19;98942.38;5045929;28;20025;-67
2021/07/29 06:10:55;;;;;;;7.43;3.28;;;;;;;19.87;72.32;98916.97;5046039;28;20312;-67
2021/07/29 06:13:20;;;;;;;7.43;3.42;;;;;;;19.80;72.26;98920.91;5045649;28;20021;-67
2021/07/29 06:15:45;;;;;;;5.75;2.75;;;;;;;19.42;75.23;98916.66;5045758;28;20021;-67
2021/07/29 06:18:12;;;;;;;10.23;3.38;;;;;;;19.19;75.94;98900.88;5045725;28;20083;-67
2021/07/29 06:20:38;;;;;;;6.90;3.38;;;;;;;19.20;75.19;98913.28;5045648;28;20020;-67
2021/07/29 06:23:04;;;;;;;5.18;2.50;;;;;;;19.05;75.41;98914.91;5045623;28;20025;-67
2021/07/29 06:25:29;;;;;;;9.20;2.50;;;;;;;19.06;75.14;98915.78;5045563;28;20022;-67
2021/07/29 06:27:55;;;;;;;6.07;2.63;;;;;;;19.27;75.55;98920.94;5045544;28;20213;-67
2021/07/29 06:30:20;;;;;;;7.10;2.92;;;;;;;19.95;73.74;98944.16;5045397;28;20320;-67
2021/07/29 06:32:46;;;;;;;5.22;2.92;;;;;;;20.94;70.93;98962.84;5045474;28;20395;-67
2021/07/29 06:35:12;;;;;;;35.47;3.05;;;;;;;20.95;71.82;98953.84;5045400;28;20092;-67
2021/07/29 06:37:37;;;;;;;7.63;2.92;;;;;;;20.59;71.66;98947.84;5044210;28;20043;-67
2021/07/29 06:40:04;;;;;;;5.93;2.13;;;;;;;20.42;72.63;98947.88;5045334;28;20186;-67
2021/07/29 06:42:29;;;;;;;14.35;2.75;;;;;;;20.22;71.28;98940.06;5045258;28;20096;-67
2021/07/29 06:44:56;;;;;;;5.43;2.10;;;;;;;20.05;72.44;98921.34;5045226;28;20327;-67
2021/07/29 06:47:21;;;;;;;5.55;2.05;;;;;;;20.12;72.56;98935.31;5045164;28;20025;-67
2021/07/29 06:49:47;;;;;;;8.80;2.22;;;;;;;20.06;72.66;98941.78;5045295;28;20071;-67
2021/07/29 06:52:13;;;;;;;6.25;2.28;;;;;;;20.14;72.03;98942.28;5045089;28;20086;-67
2021/07/29 06:54:39;;;;;;;4.43;1.98;;;;;;;20.11;73.25;98930.84;5043882;28;20332;-67
2021/07/29 06:57:09;;;;;;;3.53;2.22;;;;;;;20.21;72.25;98946.34;5044997;28;20021;-67
2021/07/29 06:59:35;;;;;;;5.70;2.50;;;;;;;20.01;72.58;98927.81;5044808;28;20240;-67
2021/07/29 07:02:01;;;;;;;4.30;2.22;;;;;;;19.77;71.34;98923.72;5043728;28;20037;-67
2021/07/29 07:04:26;;;;;;;3.20;2.00;;;;;;;19.88;71.96;98928.53;5044869;28;20223;-67
2021/07/29 07:06:52;;;;;;;9.70;2.60;;;;;;;19.96;71.08;98920.97;5044799;28;20009;-67
2021/07/29 07:09:18;;;;;;;4.78;1.85;;;;;;;19.77;72.87;98918.38;5044678;28;20032;-67
2021/07/29 07:11:43;;;;;;;3.65;1.80;;;;;;;20.25;69.27;98944.41;5044732;28;20067;-67
2021/07/29 07:14:09;;;;;;;4.60;2.95;;;;;;;20.82;71.35;98947.41;5044694;28;20027;-67
2021/07/29 07:16:35;;;;;;;24.10;2.60;;;;;;;21.33;68.32;98958.84;5044682;28;20280;-67
2021/07/29 07:19:01;;;;;;;6.20;2.10;;;;;;;21.50;64.59;98967.66;5044594;28;20025;-67
2021/07/29 07:21:27;;;;;;;5.35;1.92;;;;;;;22.04;64.21;98974.28;5044569;28;20299;-67
2021/07/29 07:23:52;;;;;;;5.72;2.63;;;;;;;22.31;64.18;98984.19;5044779;28;20048;-67
2021/07/29 07:26:20;;;;;;;5.03;2.22;;;;;;;22.62;64.15;98983.22;5043916;28;20021;-67
2021/07/29 07:28:47;;;;;;;4.80;1.80;;;;;;;22.47;62.28;99010.94;5044431;28;20059;-67
2021/07/29 07:31:14;;;;;;;6.60;2.55;;;;;;;22.56;62.52;98986.28;5044296;28;20018;-67
2021/07/29 07:33:40;;;;;;;4.30;2.13;;;;;;;22.03;62.95;98977.91;5044302;28;20027;-67
2021/07/29 07:36:05;;;;;;;6.03;2.53;;;;;;;22.20;64.96;98972.38;5044303;28;20021;-67
2021/07/29 07:38:31;;;;;;;10.90;2.50;;;;;;;22.21;64.04;98966.09;5043159;28;20075;-67
2021/07/29 07:40:56;;;;;;;3.22;2.17;;;;;;;22.25;63.56;98962.25;5044219;28;20087;-67
2021/07/29 07:43:22;;;;;;;5.80;2.53;;;;;;;22.11;65.87;98956.88;5044238;28;20025;-67
2021/07/29 07:45:49;;;;;;;6.07;3.50;;;;;;;22.07;64.74;98958.00;5044198;28;20045;-67
2021/07/29 07:48:15;;;;;;;8.05;3.75;;;;;;;22.09;65.42;98972.19;5044127;28;20370;-67
2021/07/29 07:50:41;;;;;;;8.77;3.60;;;;;;;22.04;65.91;98958.19;5044058;28;20021;-67
2021/07/29 07:53:06;;;;;;;13.73;3.95;;;;;;;21.95;65.68;98954.25;5044100;28;20108;-67
2021/07/29 07:55:33;;;;;;;12.63;4.07;;;;;;;21.85;63.32;98938.78;5042907;28;20335;-67
2021/07/29 07:57:58;;;;;;;12.45;5.93;;;;;;;22.06;64.95;98940.19;5044004;28;20033;-67
2021/07/29 08:00:24;;;;;;;5.57;2.90;;;;;;;22.09;63.99;98946.25;5043837;28;20096;-67
2021/07/29 08:02:49;;;;;;;8.30;4.18;;;;;;;22.35;62.63;98947.31;5043881;28;20021;-67
2021/07/29 08:05:15;;;;;;;9.77;3.85;;;;;;;22.11;62.82;98932.75;5043952;28;20085;-67
2021/07/29 08:07:40;;;;;;;10.48;3.60;;;;;;;22.41;63.30;98937.09;5043898;28;20212;-67
2021/07/29 08:10:06;;;;;;;7.40;3.88;;;;;;;23.86;59.65;98982.19;5043815;28;20068;-67
2021/07/29 08:12:31;;;;;;;8.85;3.13;;;;;;;23.74;60.15;98961.50;5043917;28;20343;-67
2021/07/29 08:14:57;;;;;;;10.05;3.42;;;;;;;23.05;59.91;98926.69;5042698;28;20088;-67
2021/07/29 08:17:22;;;;;;;9.35;3.30;;;;;;;23.79;57.50;98953.97;5043836;28;20316;-67
2021/07/29 08:19:47;;;;;;;15.32;3.38;;;;;;;24.35;58.24;98964.44;5043825;28;20081;-67
2021/07/29 08:22:13;;;;;;;9.27;3.70;;;;;;;24.79;58.84;98961.31;5043769;28;20321;-67
2021/07/29 08:24:38;;;;;;;7.10;3.28;;;;;;;25.24;55.65;98966.94;5043733;28;20316;-67
2021/07/29 08:27:04;;;;;;;9.15;3.00;;;;;;;25.90;53.90;98981.78;5043730;28;20084;-67
2021/07/29 08:29:33;;;;;;;9.82;3.63;;;;;;;26.29;52.65;99000.38;5043677;28;20316;-67
2021/07/29 08:31:59;;;;;;;8.30;2.80;;;;;;;26.81;50.46;98984.53;5043696;28;20025;-67
2021/07/29 08:34:25;;;;;;;7.55;3.50;;;;;;;26.21;48.33;98959.59;5043636;28;20025;-67
2021/07/29 08:36:50;;;;;;;8.70;4.13;;;;;;;26.13;53.09;98956.66;5044427;28;20067;-67
2021/07/29 08:39:16;;;;;;;21.77;3.47;;;;;;;26.26;51.62;98946.63;5047598;28;20245;-67
2021/07/29 08:41:41;;;;;;;5.60;2.53;;;;;;;25.80;52.52;98932.22;5047592;28;20028;-67
2021/07/29 08:44:07;;;;;;;6.32;3.20;;;;;;;25.92;52.90;98947.47;5047779;28;20026;-67
2021/07/29 08:46:35;;;;;;;7.72;2.90;;;;;;;26.51;48.89;98949.13;5047503;28;20254;-67
2021/07/29 08:49:01;;;;;;;8.43;2.63;;;;;;;26.31;51.15;98939.03;5047434;28;20092;-67
2021/07/29 08:51:27;;;;;;;9.88;2.60;;;;;;;24.61;53.58;98879.16;5047287;28;20089;-67
2021/07/29 08:53:52;;;;;;;4.63;2.60;;;;;;;24.96;54.08;98905.28;5047321;28;20032;-67
2021/07/29 08:56:23;;;;;;;13.13;2.85;;;;;;;25.02;54.99;98899.44;5047277;28;20029;-67
2021/07/29 08:58:49;;;;;;;10.65;2.70;;;;;;;24.18;53.91;98876.00;5046085;28;20061;-67
2021/07/29 09:01:15;;;;;;;10.48;3.15;;;;;;;24.65;53.26;98886.09;5047222;28;20204;-67
2021/07/29 09:03:44;;;;;;;10.00;3.20;;;;;;;24.82;52.91;98910.81;5047078;28;20017;-67
2021/07/29 09:06:14;;;;;;;8.65;2.97;;;;;;;24.21;52.67;98891.91;5047052;28;20021;-67
2021/07/29 09:08:48;;;;;;;8.43;3.15;;;;;;;25.39;54.10;98926.38;5047091;28;20021;-67
2021/07/29 09:11:37;;;;;;;7.43;3.45;;;;;;;25.99;52.05;98924.47;5047007;28;20084;-67
2021/07/29 09:14:12;;;;;;;12.95;3.78;;;;;;;26.81;48.98;98944.00;5046947;28;20021;-67
2021/07/29 09:16:56;;;;;;;7.38;3.28;;;;;;;26.18;50.42;98906.75;5046942;28;20025;-67
2021/07/29 09:19:31;;;;;;;9.90;3.45;;;;;;;25.70;53.02;98888.06;5046821;28;20025;-67
2021/07/29 09:22:15;;;;;;;8.18;3.03;;;;;;;25.13;53.20;98877.94;5046793;28;20032;-67
2021/07/29 09:25:06;;;;;;;11.32;3.20;;;;;;;24.58;53.17;98850.63;5046806;28;20025;-67
2021/07/29 09:27:37;;;;;;;10.77;3.67;;;;;;;23.71;53.04;98835.38;5046756;28;20395;-67
2021/07/29 09:30:18;;;;;;;8.15;3.72;;;;;;;23.74;54.31;98854.00;5046638;28;20213;-67
2021/07/29 09:33:04;;;;;;;7.30;3.65;;;;;;;23.66;55.45;98850.94;5046610;28;20021;-67
2021/07/29 09:35:52;;;;;;;5.35;2.97;;;;;;;24.45;52.04;98857.88;5046925;28;20025;-67
2021/07/29 09:38:27;;;;;;;9.52;3.25;;;;;;;24.92;49.04;98868.78;5046569;28;20205;-67
2021/07/29 09:40:55;;;;;;;5.75;2.92;;;;;;;25.83;51.93;98883.44;5046428;28;20017;-67
2021/07/29 09:43:23;;;;;;;6.20;2.80;;;;;;;26.14;49.45;98888.22;5046397;28;20079;-67
2021/07/29 09:45:51;;;;;;;8.98;3.42;;;;;;;26.74;47.27;98910.38;5046340;28;20017;-67
2021/07/29 09:48:18;;;;;;;7.50;3.33;;;;;;;26.70;51.06;98881.91;5045919;28;20022;-67
2021/07/29 09:50:44;;;;;;;12.85;3.10;;;;;;;25.02;52.72;98837.50;5044969;28;20025;-67
2021/07/29 09:53:10;;;;;;;8.43;3.03;;;;;;;25.33;51.12;98854.06;5045079;28;20025;-67
2021/07/29 09:55:36;;;;;;;10.20;3.05;;;;;;;26.84;47.73;98889.75;5046438;28;20362;-67
2021/07/29 09:58:03;;;;;;;5.70;2.90;;;;;;;26.86;47.70;98877.81;5046165;28;20040;-67
2021/07/29 10:00:28;;;;;;;5.57;3.30;;;;;;;26.17;48.63;98855.59;5045934;28;20045;-67
2021/07/29 10:02:55;;;;;;;4.35;2.63;;;;;;;27.51;47.31;98875.09;5045977;28;20048;-67
2021/07/29 10:05:26;;;;;;;4.38;3.00;;;;;;;27.45;45.43;98864.81;5046008;28;20032;-67
2021/07/29 10:07:55;;;;;;;7.40;2.90;;;;;;;27.77;45.16;98864.81;5045996;28;20085;-67
2021/07/29 10:10:25;;;;;;;8.27;3.17;;;;;;;28.26;47.17;98876.69;5046080;28;20343;-67
2021/07/29 10:12:51;;;;;;;8.05;3.45;;;;;;;26.15;48.20;98798.19;5045860;28;20022;-67
2021/07/29 10:15:40;;;;;;;9.82;3.45;;;;;;;24.78;50.02;98769.28;5044671;28;20036;-67
2021/07/29 10:18:06;;;;;;;7.72;3.70;;;;;;;25.42;50.63;98823.75;5045764;28;20374;-67
2021/07/29 10:20:33;;;;;;;11.23;3.40;;;;;;;25.49;49.75;98789.94;5045724;28;20063;-67
2021/07/29 10:23:13;;;;;;;10.32;3.45;;;;;;;25.19;51.61;98785.91;5045700;28;20052;-67
2021/07/29 10:25:54;;;;;;;6.18;3.40;;;;;;;24.13;52.08;98749.03;5045598;28;20220;-67
2021/07/29 10:28:27;;;;;;;9.15;3.20;;;;;;;24.54;53.89;98760.31;5045573;28;20033;-67
2021/07/29 10:30:56;;;;;;;9.45;3.42;;;;;;;24.76;52.61;98771.25;5045490;28;20324;-67
2021/07/29 10:33:23;;;;;;;8.43;3.33;;;;;;;24.44;50.97;98740.44;5045505;28;20291;-67
2021/07/29 10:35:50;;;;;;;8.73;3.65;;;;;;;22.81;54.04;98715.38;5045420;28;20245;-67
2021/07/29 10:38:47;;;;;;;6.82;3.80;;;;;;;25.15;52.72;98795.19;5045408;28;20048;-67
2021/07/29 10:41:13;;;;;;;8.63;3.60;;;;;;;26.12;49.31;98814.59;5045305;28;20026;-67
2021/07/29 10:43:41;;;;;;;4.00;2.70;;;;;;;25.77;47.34;98800.31;5045279;28;20026;-67
2021/07/29 10:46:09;;;;;;;7.75;3.22;;;;;;;25.71;47.78;98790.00;5045223;28;20033;-67
2021/07/29 10:48:44;;;;;;;5.88;3.20;;;;;;;24.95;50.83;98768.91;5045256;28;20202;-67
2021/07/29 10:51:21;;;;;;;11.80;3.00;;;;;;;24.03;51.43;98742.59;5045101;28;20021;-67
2021/07/29 10:53:48;;;;;;;6.30;2.97;;;;;;;22.69;53.77;98743.03;5043977;28;20058;-67
2021/07/29 10:56:15;;;;;;;4.88;3.00;;;;;;;22.56;55.34;98731.41;5045043;28;20028;-67
2021/07/29 10:58:46;;;;;;;7.47;2.92;;;;;;;22.56;54.92;98740.28;5044944;28;20017;-67
2021/07/29 11:01:14;;;;;;;7.30;2.63;;;;;;;22.70;55.21;98739.38;5044131;28;20013;-67
2021/07/29 11:03:48;;;;;;;8.75;3.17;;;;;;;23.13;53.93;98759.72;5044812;28;20048;-67
2021/07/29 11:06:33;;;;;;;7.55;3.80;;;;;;;23.68;55.28;98763.03;5044919;28;20068;-67
2021/07/29 11:09:29;;;;;;;7.57;2.85;;;;;;;24.38;51.61;98775.88;5044826;28;20021;-67
2021/07/29 11:11:54;;;;;;;8.27;3.33;;;;;;;25.25;50.47;98782.72;5044601;28;20036;-67
2021/07/29 11:14:25;;;;;;;6.78;3.03;;;;;;;25.13;48.30;98766.66;5044705;28;20089;-67
2021/07/29 11:16:53;;;;;;;8.40;2.85;;;;;;;26.00;48.99;98783.22;5044670;28;20029;-67
2021/07/29 11:19:18;;;;;;;7.03;2.97;;;;;;;25.39;49.29;98751.22;5044853;28;20032;-67
2021/07/29 11:21:44;;;;;;;22.15;4.30;;;;;;;24.66;48.73;98721.78;5044644;28;20021;-67
2021/07/29 11:24:25;;;;;;;6.78;3.50;;;;;;;23.92;52.52;98730.84;5044530;28;20022;-67
2021/07/29 11:26:51;;;;;;;7.95;3.65;;;;;;;23.52;53.07;98732.81;5044766;28;20022;-67
2021/07/29 11:29:16;;;;;;;12.02;3.50;;;;;;;23.78;56.12;98725.59;5044442;28;20022;-67
2021/07/29 11:31:42;;;;;;;9.77;3.50;;;;;;;22.87;55.33;98697.03;5044329;28;20076;-67